Airfield :
LOGIN :

Register | Disclaimer

   EN    FR    IT 

 










Legend :    VFR   Marginal VFR   IFR   Intensive IFR   Very Intensive IFR
Visi :
Ceiling :
>= 8 km
>= 3000ft
5 to 8 km
1000 to 3000 ft
1500m to 5 km
500 to 1000 ft
800 to 1500m
200 to 500 ft
< 800m
< 200 ft
Symbols :   Thunderstorms  Fog  Heavy snow  Heavy precipitations  Wind > 20 kt
SIGMETs :     Misc.  Thunderstorms  Icing  Turbulence  Mountain Waves  Volcanic Ashes






- Airport Elevation : 459 ft
- IATA code : CER


LFRC - Cherbourg / Maupertus

CURRENT METAR :
  • 300400Z AUTO 16006KT 0500 0450 R28/0700N FG VV/// 06/05 Q1021

EXPIRED METARs :
  • 300330Z AUTO 12007KT 7000 BKN003 OVC048 07/06 Q1021
  • 300300Z AUTO 09003KT 9999 OVC046 07/07 Q1021
  • 300230Z AUTO 12002KT 9999 SCT043 OVC049 07/06 Q1021
  • 300200Z AUTO 15002KT 6000 2500 FEW042 BKN050 06/06 Q1021
  • 300130Z AUTO 13003KT 5000 0650 R28/P2000 BCFG NSC 06/05 Q1021
  • 300100Z AUTO 13004KT 5000 0700 R28/P2000 BCFG FEW044 SCT050 06/05 Q1021

Expired Forecast.



MET'MAP, your aeronautical weather chart ! - Copyright ORBIFLY December 2007 - Disclaimer

ORBIFLY MET'MAP TEAM :

Programming & Development : Alexandra Zaïnal
Original concept : Baudouin d'Aumeries
Technical & hardware support : Manuel Goepfert
Assistance : Marc-Olivier Méhu




SOURCES & CREDITS :

   NOAA